Bree, Belgium
Current Conditions -  °F | °C
As of 10:55 AM on Thursday 23 Oct 2014 (Local Time) from EBBL Reporting Station
Broken Clouds Broken Clouds  
Wind Chill: 50°   Ceiling: 3500
Heat Index: 50°   Visibility: 6mi
Dew Point: 46°   Wind: 7mph
Humidity: 87%   Direction: 210°SSW
Pressure: 30.21"   Gusts: NA
Location:  51.14°N, 5.6°E
Report Text: EBBL 230855Z 21006KT 9999 FEW028 BKN035 10/08 Q1023 BLU BLU
Loading
Personal Weather Stations






























Interactive Weather Map
Tropical Storm Tracking
New forecast layout! Learn more

10-Day Weather Forecast

Advertisements
Track Severe Weather on mobile